createdAt,value
2022-09-23T00:00:40.936Z,8.22
2022-09-23T00:01:41.276Z,8.25
2022-09-23T00:02:41.666Z,8.22
2022-09-23T00:03:41.822Z,8.19
2022-09-23T00:04:42.048Z,8.16
2022-09-23T00:05:42.310Z,8.12
2022-09-23T00:06:42.552Z,8.12
2022-09-23T00:07:42.795Z,8.15
2022-09-23T00:08:43.050Z,8.15
2022-09-23T00:09:43.305Z,8.11
2022-09-23T00:10:43.531Z,8.11
2022-09-23T00:11:43.780Z,8.10
2022-09-23T00:12:44.034Z,8.08
2022-09-23T00:13:44.323Z,8.08
2022-09-23T00:14:44.561Z,8.08
2022-09-23T00:15:44.779Z,8.08
2022-09-23T00:16:45.289Z,8.07
2022-09-23T00:17:45.370Z,8.07
2022-09-23T00:18:45.602Z,8.04
2022-09-23T00:19:45.872Z,8.04
2022-09-23T00:20:46.122Z,8.04
2022-09-23T00:21:46.380Z,8.04
2022-09-23T00:22:46.604Z,8.04
2022-09-23T00:23:46.840Z,8.02
2022-09-23T00:24:47.082Z,8.01
2022-09-23T00:25:47.311Z,7.98
2022-09-23T00:26:47.587Z,7.97
2022-09-23T00:27:47.855Z,7.97
2022-09-23T00:28:48.110Z,7.95
2022-09-23T00:29:48.324Z,7.93
2022-09-23T00:30:48.631Z,7.93
2022-09-23T00:31:48.875Z,7.92
2022-09-23T00:32:49.115Z,7.93
2022-09-23T00:33:49.341Z,7.92
2022-09-23T00:34:49.594Z,7.90
2022-09-23T00:35:49.843Z,7.89
2022-09-23T00:36:50.088Z,7.86
2022-09-23T00:37:50.316Z,7.87
2022-09-23T00:38:50.569Z,7.86
2022-09-23T00:39:50.772Z,7.86
2022-09-23T00:40:51.265Z,7.85
2022-09-23T00:41:51.495Z,7.82
2022-09-23T00:42:51.709Z,7.80
2022-09-23T00:43:52.057Z,7.79
2022-09-23T00:44:52.321Z,7.77
2022-09-23T00:45:52.609Z,7.77
2022-09-23T00:46:52.867Z,7.75
2022-09-23T00:47:53.188Z,7.75
2022-09-23T00:48:53.419Z,7.74
2022-09-23T00:49:53.669Z,7.72
2022-09-23T00:50:53.931Z,7.75
2022-09-23T00:51:54.176Z,7.77
2022-09-23T00:52:54.463Z,7.77
2022-09-23T00:53:54.724Z,7.75
2022-09-23T00:54:54.992Z,7.74
2022-09-23T00:55:55.279Z,7.72
2022-09-23T00:56:55.597Z,7.74
2022-09-23T00:57:55.808Z,7.74
2022-09-23T00:58:56.089Z,7.72
2022-09-23T00:59:56.328Z,7.72
2022-09-23T01:00:56.740Z,7.72
2022-09-23T01:01:56.892Z,7.71
2022-09-23T01:02:58.097Z,7.69
2022-09-23T01:03:57.399Z,7.71
2022-09-23T01:04:57.672Z,7.69
2022-09-23T01:05:57.981Z,7.69
2022-09-23T01:06:58.204Z,7.68
2022-09-23T01:07:58.442Z,7.68
2022-09-23T01:08:58.755Z,7.64
2022-09-23T01:09:59.003Z,7.64
2022-09-23T01:10:59.262Z,7.64
2022-09-23T01:11:59.502Z,7.63
2022-09-23T01:12:59.782Z,7.61
2022-09-23T01:14:00.008Z,7.60
2022-09-23T01:15:00.241Z,7.60
2022-09-23T01:16:00.502Z,7.58
2022-09-23T01:17:00.786Z,7.57
2022-09-23T01:18:01.023Z,7.53
2022-09-23T01:19:01.279Z,7.55
2022-09-23T01:20:01.494Z,7.53
2022-09-23T01:21:01.853Z,7.52
2022-09-23T01:22:02.093Z,7.50
2022-09-23T01:23:02.333Z,7.50
2022-09-23T01:24:02.657Z,7.48
2022-09-23T01:25:02.894Z,7.48
2022-09-23T01:26:03.137Z,7.48
2022-09-23T01:27:03.366Z,7.49
2022-09-23T01:28:03.597Z,7.49
2022-09-23T01:29:04.001Z,7.46
2022-09-23T01:30:04.271Z,7.48
2022-09-23T01:31:04.587Z,7.49
2022-09-23T01:32:04.876Z,7.50
2022-09-23T01:33:05.107Z,7.48
2022-09-23T01:34:05.329Z,7.48
2022-09-23T01:35:05.696Z,7.48
2022-09-23T01:36:05.909Z,7.48
2022-09-23T01:37:06.242Z,7.48
2022-09-23T01:38:06.586Z,7.46
2022-09-23T01:39:07.101Z,7.45
2022-09-23T01:40:07.286Z,7.45
2022-09-23T01:41:07.509Z,7.42
2022-09-23T01:42:07.846Z,7.40
2022-09-23T01:43:08.188Z,7.39
2022-09-23T01:44:08.475Z,7.40
2022-09-23T01:45:08.747Z,7.40
2022-09-23T01:46:08.997Z,7.40
2022-09-23T01:47:09.262Z,7.39
2022-09-23T01:48:09.536Z,7.37
2022-09-23T01:49:09.809Z,7.37
2022-09-23T01:50:10.078Z,7.35
2022-09-23T01:51:10.326Z,7.32
2022-09-23T01:52:10.518Z,7.37
2022-09-23T01:53:10.927Z,7.37
2022-09-23T01:54:11.171Z,7.37
2022-09-23T01:55:11.572Z,7.35
2022-09-23T01:56:11.660Z,7.34
2022-09-23T01:57:11.891Z,7.35
2022-09-23T01:58:12.119Z,7.32
2022-09-23T01:59:12.369Z,7.32
2022-09-23T02:00:12.650Z,7.34
2022-09-23T02:01:12.934Z,7.34
2022-09-23T02:02:13.193Z,7.32
2022-09-23T02:03:13.413Z,7.30
2022-09-23T02:04:21.380Z,7.31
2022-09-23T02:05:13.954Z,7.31
2022-09-23T02:06:14.297Z,7.28
2022-09-23T02:07:14.522Z,7.28
2022-09-23T02:08:14.866Z,7.31
2022-09-23T02:09:15.204Z,7.31
2022-09-23T02:10:15.547Z,7.31
2022-09-23T02:11:15.754Z,7.30
2022-09-23T02:12:16.092Z,7.27
2022-09-23T02:13:16.309Z,7.25
2022-09-23T02:14:16.658Z,7.25
2022-09-23T02:15:17.026Z,7.24
2022-09-23T02:16:17.244Z,7.23
2022-09-23T02:17:17.510Z,7.23
2022-09-23T02:18:17.729Z,7.21
2022-09-23T02:19:18.064Z,7.21
2022-09-23T02:20:18.388Z,7.20
2022-09-23T02:21:18.716Z,7.17
2022-09-23T02:22:19.117Z,7.16
2022-09-23T02:23:19.399Z,7.16
2022-09-23T02:24:19.765Z,7.16
2022-09-23T02:25:19.850Z,7.15
2022-09-23T02:26:20.376Z,7.17
2022-09-23T02:27:20.440Z,7.20
2022-09-23T02:28:20.650Z,7.17
2022-09-23T02:29:20.991Z,7.15
2022-09-23T02:30:21.354Z,7.15
2022-09-23T02:31:21.645Z,7.13
2022-09-23T02:32:21.884Z,7.15
2022-09-23T02:33:22.208Z,7.12
2022-09-23T02:34:22.532Z,7.10
2022-09-23T02:35:22.884Z,7.09
2022-09-23T02:36:23.153Z,7.07
2022-09-23T02:37:23.356Z,7.07
2022-09-23T02:38:23.692Z,7.06
2022-09-23T02:39:24.014Z,7.05
2022-09-23T02:40:24.415Z,7.05
2022-09-23T02:41:24.631Z,7.07
2022-09-23T02:42:24.993Z,7.09
2022-09-23T02:43:25.304Z,7.09
2022-09-23T02:44:25.643Z,7.06
2022-09-23T02:45:25.991Z,7.06
2022-09-23T02:46:26.212Z,7.06
2022-09-23T02:47:26.433Z,7.05
2022-09-23T02:48:26.772Z,7.03
2022-09-23T02:49:27.102Z,7.02
2022-09-23T02:50:27.470Z,7.02
2022-09-23T02:51:27.716Z,7.02
2022-09-23T02:52:28.032Z,7.02
2022-09-23T02:53:28.354Z,6.98
2022-09-23T02:54:28.723Z,6.99
2022-09-23T02:55:28.950Z,6.98
2022-09-23T02:56:30.164Z,6.97
2022-09-23T02:57:29.452Z,6.95
2022-09-23T02:58:29.665Z,6.95
2022-09-23T02:59:30.032Z,6.94
2022-09-23T03:00:30.523Z,6.92
2022-09-23T03:01:30.813Z,6.92
2022-09-23T03:02:31.056Z,6.91
2022-09-23T03:03:31.305Z,6.91
2022-09-23T03:04:31.554Z,6.92
2022-09-23T03:05:31.790Z,6.91
2022-09-23T03:06:32.141Z,6.88
2022-09-23T03:07:32.375Z,6.88
2022-09-23T03:08:32.588Z,6.88
2022-09-23T03:09:32.928Z,6.85
2022-09-23T03:10:33.362Z,6.87
2022-09-23T03:11:33.549Z,6.88
2022-09-23T03:12:33.875Z,6.87
2022-09-23T03:13:34.224Z,6.87
2022-09-23T03:14:34.547Z,6.85
2022-09-23T03:15:34.876Z,6.85
2022-09-23T03:16:35.244Z,6.85
2022-09-23T03:17:35.563Z,6.84
2022-09-23T03:18:35.904Z,6.81
2022-09-23T03:19:36.132Z,6.79
2022-09-23T03:20:36.479Z,6.79
2022-09-23T03:21:36.738Z,6.79
2022-09-23T03:22:36.970Z,6.77
2022-09-23T03:23:37.205Z,6.76
2022-09-23T03:24:37.441Z,6.76
2022-09-23T03:25:37.842Z,6.76
2022-09-23T03:26:37.909Z,6.74
2022-09-23T03:27:38.275Z,6.74
2022-09-23T03:28:38.667Z,6.74
2022-09-23T03:29:38.861Z,6.74
2022-09-23T03:30:39.079Z,6.71
2022-09-23T03:31:39.454Z,6.73
2022-09-23T03:32:39.659Z,6.70
2022-09-23T03:33:39.992Z,6.70
2022-09-23T03:34:40.369Z,6.69
2022-09-23T03:35:40.580Z,6.69
2022-09-23T03:36:40.921Z,6.69
2022-09-23T03:37:41.247Z,6.67
2022-09-23T03:38:41.594Z,6.67
2022-09-23T03:39:41.953Z,6.64
2022-09-23T03:40:42.281Z,6.66
2022-09-23T03:41:42.481Z,6.64
2022-09-23T03:42:42.702Z,6.62
2022-09-23T03:43:43.087Z,6.62
2022-09-23T03:44:43.332Z,6.61
2022-09-23T03:45:44.559Z,6.61
2022-09-23T03:46:43.803Z,6.61
2022-09-23T03:47:44.131Z,6.61
2022-09-23T03:48:44.463Z,6.61
2022-09-23T03:49:44.813Z,6.59
2022-09-23T03:50:45.142Z,6.58
2022-09-23T03:51:45.472Z,6.58
2022-09-23T03:52:45.832Z,6.56
2022-09-23T03:53:46.034Z,6.54
2022-09-23T03:54:46.372Z,6.51
2022-09-23T03:55:46.698Z,6.51
2022-09-23T03:56:47.037Z,6.51
2022-09-23T03:57:47.375Z,6.49
2022-09-23T03:58:47.582Z,6.48
2022-09-23T03:59:47.925Z,6.48
2022-09-23T04:00:48.196Z,6.48
2022-09-23T04:01:48.418Z,6.46
2022-09-23T04:02:48.766Z,6.48
2022-09-23T04:03:49.081Z,6.49
2022-09-23T04:04:49.468Z,6.52
2022-09-23T04:05:49.708Z,6.54
2022-09-23T04:06:50.096Z,6.54
2022-09-23T04:07:50.307Z,6.55
2022-09-23T04:08:50.725Z,6.55
2022-09-23T04:09:50.963Z,6.52
2022-09-23T04:10:54.776Z,6.51
2022-09-23T04:11:51.417Z,6.51
2022-09-23T04:12:51.788Z,6.49
2022-09-23T04:13:51.997Z,6.46
2022-09-23T04:14:52.365Z,6.46
2022-09-23T04:15:52.583Z,6.46
2022-09-23T04:16:52.940Z,6.46
2022-09-23T04:17:53.178Z,6.48
2022-09-23T04:18:53.914Z,6.48
2022-09-23T04:19:53.692Z,6.48
2022-09-23T04:20:53.937Z,6.49
2022-09-23T04:21:54.166Z,6.49
2022-09-23T04:22:54.529Z,6.49
2022-09-23T04:23:54.750Z,6.49
2022-09-23T04:24:55.088Z,6.48
2022-09-23T04:25:55.434Z,6.49
2022-09-23T04:26:55.768Z,6.48
2022-09-23T04:27:56.109Z,6.48
2022-09-23T04:28:56.441Z,6.44
2022-09-23T04:29:56.801Z,6.44
2022-09-23T04:30:57.017Z,6.43
2022-09-23T04:31:57.426Z,6.44
2022-09-23T04:32:57.668Z,6.41
2022-09-23T04:33:58.103Z,6.41
2022-09-23T04:34:58.162Z,6.41
2022-09-23T04:35:58.382Z,6.41
2022-09-23T04:36:58.743Z,6.41
2022-09-23T04:37:58.989Z,6.43
2022-09-23T04:38:59.362Z,6.43
2022-09-23T04:39:59.542Z,6.40
2022-09-23T04:40:59.890Z,6.37
2022-09-23T04:42:00.232Z,6.34
2022-09-23T04:43:00.484Z,6.33
2022-09-23T04:44:00.750Z,6.33
2022-09-23T04:45:00.961Z,6.33
2022-09-23T04:46:01.384Z,6.30
2022-09-23T04:47:01.676Z,6.30
2022-09-23T04:48:01.974Z,6.31
2022-09-23T04:49:02.273Z,6.34
2022-09-23T04:50:02.515Z,6.36
2022-09-23T04:51:02.761Z,6.34
2022-09-23T04:52:02.993Z,6.34
2022-09-23T04:53:03.243Z,6.34
2022-09-23T04:54:03.483Z,6.34
2022-09-23T04:55:06.069Z,6.33
2022-09-23T04:56:05.065Z,6.33
2022-09-23T04:57:04.374Z,6.33
2022-09-23T04:58:04.703Z,6.33
2022-09-23T04:59:04.975Z,6.33
2022-09-23T05:00:05.207Z,6.33
2022-09-23T05:01:05.567Z,6.33
2022-09-23T05:02:05.791Z,6.34
2022-09-23T05:03:06.046Z,6.34
2022-09-23T05:04:06.324Z,6.36
2022-09-23T05:05:06.586Z,6.37
2022-09-23T05:06:06.832Z,6.40
2022-09-23T05:07:07.080Z,6.41
2022-09-23T05:08:07.317Z,6.41
2022-09-23T05:09:07.844Z,6.43
2022-09-23T05:10:07.846Z,6.41
2022-09-23T05:11:08.096Z,6.44
2022-09-23T05:12:08.339Z,6.46
2022-09-23T05:13:08.587Z,6.51
2022-09-23T05:14:08.858Z,6.52
2022-09-23T05:15:09.115Z,6.56
2022-09-23T05:16:09.394Z,6.54
2022-09-23T05:17:09.639Z,6.54
2022-09-23T05:18:09.880Z,6.55
2022-09-23T05:19:10.214Z,6.56
2022-09-23T05:20:10.347Z,6.58
2022-09-23T05:21:10.607Z,6.62
2022-09-23T05:22:10.877Z,6.64
2022-09-23T05:23:11.190Z,6.66
2022-09-23T05:24:11.457Z,6.69
2022-09-23T05:25:11.709Z,6.67
2022-09-23T05:26:12.042Z,6.70
2022-09-23T05:27:12.311Z,6.71
2022-09-23T05:28:12.558Z,6.71
2022-09-23T05:29:12.837Z,6.73
2022-09-23T05:30:13.136Z,6.74
2022-09-23T05:31:19.332Z,6.74
2022-09-23T05:32:14.742Z,6.74
2022-09-23T05:33:14.050Z,6.77
2022-09-23T05:34:14.322Z,6.77
2022-09-23T05:35:14.579Z,6.81
2022-09-23T05:36:14.832Z,6.84
2022-09-23T05:37:15.092Z,6.84
2022-09-23T05:38:15.368Z,6.84
2022-09-23T05:39:15.731Z,6.85
2022-09-23T05:40:15.915Z,6.81
2022-09-23T05:41:16.156Z,6.81
2022-09-23T05:42:16.398Z,6.85
2022-09-23T05:43:16.662Z,6.85
2022-09-23T05:44:16.993Z,6.88
2022-09-23T05:45:17.219Z,6.88
2022-09-23T05:46:17.517Z,6.88
2022-09-23T05:47:17.825Z,6.92
2022-09-23T05:48:18.095Z,6.92
2022-09-23T05:49:18.352Z,6.92
2022-09-23T05:50:18.597Z,6.92
2022-09-23T05:51:18.873Z,6.94
2022-09-23T05:52:19.139Z,6.94
2022-09-23T05:53:19.411Z,6.98
2022-09-23T05:54:19.683Z,7.02
2022-09-23T05:55:19.952Z,7.02
2022-09-23T05:56:20.355Z,7.05
2022-09-23T05:57:20.495Z,7.05
2022-09-23T05:58:20.734Z,7.05
2022-09-23T05:59:21.083Z,7.07
2022-09-23T06:00:21.217Z,7.07
2022-09-23T06:01:21.597Z,7.07
2022-09-23T06:02:21.850Z,7.09
2022-09-23T06:03:22.178Z,7.12
2022-09-23T06:04:22.374Z,7.13
2022-09-23T06:05:22.638Z,7.15
2022-09-23T06:06:22.896Z,7.16
2022-09-23T06:07:23.168Z,7.16
2022-09-23T06:08:23.419Z,7.20
2022-09-23T06:09:23.674Z,7.23
2022-09-23T06:10:23.948Z,7.24
2022-09-23T06:11:24.217Z,7.24
2022-09-23T06:12:24.478Z,7.28
2022-09-23T06:13:24.751Z,7.30
2022-09-23T06:14:25.026Z,7.31
2022-09-23T06:15:25.290Z,7.32
2022-09-23T06:16:25.618Z,7.37
2022-09-23T06:17:25.859Z,7.39
2022-09-23T06:18:26.126Z,7.42
2022-09-23T06:19:26.386Z,7.43
2022-09-23T06:20:26.642Z,7.45
2022-09-23T06:21:26.901Z,7.48
2022-09-23T06:22:27.813Z,7.49
2022-09-23T06:23:27.499Z,7.53
2022-09-23T06:24:31.375Z,7.58
2022-09-23T06:25:28.100Z,7.61
2022-09-23T06:26:28.351Z,7.64
2022-09-23T06:27:28.631Z,7.71
2022-09-23T06:28:28.904Z,7.72
2022-09-23T06:29:29.165Z,7.75
2022-09-23T06:30:29.420Z,7.79
2022-09-23T06:31:29.747Z,7.82
2022-09-23T06:32:29.919Z,7.85
2022-09-23T06:33:36.627Z,7.86
2022-09-23T06:34:36.894Z,7.87
2022-09-23T06:35:31.711Z,7.90
2022-09-23T06:36:42.685Z,7.92
2022-09-23T06:37:32.371Z,7.95
2022-09-23T06:38:31.714Z,8.00
2022-09-23T06:39:32.015Z,8.01
2022-09-23T06:40:32.300Z,8.04
2022-09-23T06:41:32.524Z,8.08
2022-09-23T06:42:32.786Z,8.10
2022-09-23T06:43:33.035Z,8.15
2022-09-23T06:44:33.297Z,8.23
2022-09-23T06:45:33.566Z,8.28
2022-09-23T06:46:34.041Z,8.33
2022-09-23T06:47:34.175Z,8.38
2022-09-23T06:48:34.429Z,8.41
2022-09-23T06:49:34.713Z,8.45
2022-09-23T06:50:34.969Z,8.48
2022-09-23T06:51:35.214Z,8.50
2022-09-23T06:52:35.495Z,8.53
2022-09-23T06:53:35.807Z,8.56
2022-09-23T06:54:36.107Z,8.58
2022-09-23T06:55:36.366Z,8.61
2022-09-23T06:56:39.557Z,8.62
2022-09-23T06:57:37.498Z,8.66
2022-09-23T06:58:37.197Z,8.71
2022-09-23T06:59:37.476Z,8.76
2022-09-23T07:00:37.727Z,8.79
2022-09-23T07:01:38.207Z,8.80
2022-09-23T07:02:38.402Z,8.81
2022-09-23T07:03:38.659Z,8.81
2022-09-23T07:04:38.965Z,8.83
2022-09-23T07:05:39.218Z,8.83
2022-09-23T07:06:39.470Z,8.84
2022-09-23T07:07:39.782Z,8.87
2022-09-23T07:08:40.027Z,8.91
2022-09-23T07:09:40.291Z,8.94
2022-09-23T07:10:40.570Z,8.94
2022-09-23T07:11:40.836Z,8.96
2022-09-23T07:12:41.081Z,8.99
2022-09-23T07:13:41.354Z,8.99
2022-09-23T07:14:41.660Z,9.01
2022-09-23T07:15:41.976Z,9.05
2022-09-23T07:16:42.280Z,9.08
2022-09-23T07:17:42.550Z,9.13
2022-09-23T07:18:42.854Z,9.15
2022-09-23T07:19:43.142Z,9.15
2022-09-23T07:20:43.483Z,9.18
2022-09-23T07:21:43.744Z,9.21
2022-09-23T07:22:43.954Z,9.24
2022-09-23T07:23:44.282Z,9.26
2022-09-23T07:24:44.604Z,9.29
2022-09-23T07:25:44.925Z,9.32
2022-09-23T07:26:45.850Z,9.35
2022-09-23T07:27:45.623Z,9.38
2022-09-23T07:28:45.856Z,9.39
2022-09-23T07:29:48.910Z,9.43
2022-09-23T07:30:57.534Z,9.48
2022-09-23T07:31:47.712Z,9.48
2022-09-23T07:32:49.219Z,9.51
2022-09-23T07:33:47.401Z,9.54
2022-09-23T07:34:48.407Z,9.58
2022-09-23T07:35:48.024Z,9.61
2022-09-23T07:36:48.287Z,9.65
2022-09-23T07:37:48.564Z,9.68
2022-09-23T07:38:48.826Z,9.71
2022-09-23T07:39:49.104Z,9.74
2022-09-23T07:40:49.443Z,9.78
2022-09-23T07:41:49.711Z,9.81
2022-09-23T07:42:49.956Z,9.83
2022-09-23T07:43:50.232Z,9.86
2022-09-23T07:44:50.488Z,9.89
2022-09-23T07:45:50.788Z,9.93
2022-09-23T07:46:51.142Z,9.97
2022-09-23T07:47:51.270Z,10.01
2022-09-23T07:48:51.530Z,10.05
2022-09-23T07:49:51.801Z,10.08
2022-09-23T07:50:52.048Z,10.09
2022-09-23T07:51:52.338Z,10.11
2022-09-23T07:52:52.608Z,10.12
2022-09-23T07:53:52.914Z,10.18
2022-09-23T07:54:53.151Z,10.23
2022-09-23T07:55:53.434Z,10.27
2022-09-23T07:56:53.756Z,10.29
2022-09-23T07:57:54.023Z,10.32
2022-09-23T07:58:54.307Z,10.36
2022-09-23T07:59:54.543Z,10.42
2022-09-23T08:00:54.826Z,10.45
2022-09-23T08:01:55.168Z,10.52
2022-09-23T08:02:55.477Z,10.53
2022-09-23T08:03:55.755Z,10.56
2022-09-23T08:04:56.014Z,10.56
2022-09-23T08:05:56.293Z,10.61
2022-09-23T08:06:56.587Z,10.64
2022-09-23T08:07:56.845Z,10.68
2022-09-23T08:08:57.186Z,10.74
2022-09-23T08:09:57.454Z,10.74
2022-09-23T08:10:57.705Z,10.73
2022-09-23T08:11:57.957Z,10.73
2022-09-23T08:12:58.215Z,10.73
2022-09-23T08:13:58.559Z,10.76
2022-09-23T08:14:58.716Z,10.79
2022-09-23T08:15:59.668Z,10.81
2022-09-23T08:16:59.528Z,10.81
2022-09-23T08:17:59.532Z,10.84
2022-09-23T08:18:59.962Z,10.89
2022-09-23T08:20:00.123Z,10.94
2022-09-23T08:21:00.398Z,10.97
2022-09-23T08:22:00.682Z,11.03
2022-09-23T08:23:00.973Z,11.06
2022-09-23T08:24:01.240Z,11.09
2022-09-23T08:25:01.552Z,11.09
2022-09-23T08:26:01.830Z,11.14
2022-09-23T08:27:02.070Z,11.14
2022-09-23T08:28:02.332Z,11.17
2022-09-23T08:29:02.593Z,11.18
2022-09-23T08:30:02.904Z,11.22
2022-09-23T08:31:03.312Z,11.27
2022-09-23T08:32:03.561Z,11.28
2022-09-23T08:33:03.846Z,11.29
2022-09-23T08:34:04.149Z,11.32
2022-09-23T08:35:04.409Z,11.33
2022-09-23T08:36:04.684Z,11.36
2022-09-23T08:37:05.044Z,11.39
2022-09-23T08:38:05.319Z,11.43
2022-09-23T08:39:05.435Z,11.49
2022-09-23T08:40:05.752Z,11.55
2022-09-23T08:41:06.009Z,11.60
2022-09-23T08:42:06.285Z,11.61
2022-09-23T08:43:06.522Z,11.62
2022-09-23T08:44:06.830Z,11.67
2022-09-23T08:45:07.115Z,11.70
2022-09-23T08:46:07.428Z,11.73
2022-09-23T08:47:07.682Z,11.78
2022-09-23T08:48:12.712Z,11.82
2022-09-23T08:49:09.236Z,11.85
2022-09-23T08:50:08.437Z,11.88
2022-09-23T08:51:08.767Z,11.91
2022-09-23T08:52:09.067Z,11.95
2022-09-23T08:53:09.341Z,11.98
2022-09-23T08:54:09.640Z,11.98
2022-09-23T08:55:09.958Z,12.04
2022-09-23T08:56:11.197Z,12.05
2022-09-23T08:57:10.549Z,12.10
2022-09-23T08:58:26.762Z,12.13
2022-09-23T08:59:12.082Z,12.14
2022-09-23T09:00:11.299Z,12.17
2022-09-23T09:01:11.581Z,12.20
2022-09-23T09:02:11.891Z,12.27
2022-09-23T09:03:12.140Z,12.27
2022-09-23T09:04:12.776Z,12.28
2022-09-23T09:05:12.768Z,12.29
2022-09-23T09:06:12.923Z,12.32
2022-09-23T09:07:35.339Z,12.34
2022-09-23T09:08:14.392Z,12.32
2022-09-23T09:09:13.823Z,12.35
2022-09-23T09:10:13.972Z,12.39
2022-09-23T09:11:14.263Z,12.42
2022-09-23T09:12:14.537Z,12.45
2022-09-23T09:13:14.825Z,12.47
2022-09-23T09:14:15.560Z,12.52
2022-09-23T09:15:15.385Z,12.56
2022-09-23T09:16:15.729Z,12.62
2022-09-23T09:17:15.921Z,12.68
2022-09-23T09:18:16.440Z,12.70
2022-09-23T09:19:16.505Z,12.72
2022-09-23T09:20:16.669Z,12.74
2022-09-23T09:21:16.927Z,12.75
2022-09-23T09:22:17.196Z,12.78
2022-09-23T09:23:17.487Z,12.82
2022-09-23T09:24:17.786Z,12.86
2022-09-23T09:25:18.098Z,12.90
2022-09-23T09:26:18.347Z,12.95
2022-09-23T09:27:18.611Z,13.00
2022-09-23T09:28:18.890Z,13.00
2022-09-23T09:29:36.165Z,12.97
2022-09-23T09:30:20.573Z,13.03
2022-09-23T09:31:19.784Z,13.04
2022-09-23T09:32:20.050Z,13.05
2022-09-23T09:33:20.309Z,13.10
2022-09-23T09:34:20.571Z,13.08
2022-09-23T09:35:20.822Z,13.12
2022-09-23T09:36:21.108Z,13.19
2022-09-23T09:37:21.425Z,13.17
2022-09-23T09:38:21.661Z,13.19
2022-09-23T09:39:26.121Z,13.19
2022-09-23T09:40:22.339Z,13.25
2022-09-23T09:41:22.650Z,13.25
2022-09-23T09:42:22.835Z,13.30
2022-09-23T09:43:23.162Z,13.33
2022-09-23T09:44:23.455Z,13.41
2022-09-23T09:45:23.742Z,13.41
2022-09-23T09:46:24.049Z,13.42
2022-09-23T09:47:24.443Z,13.44
2022-09-23T09:48:24.584Z,13.49
2022-09-23T09:49:24.778Z,13.57
2022-09-23T09:50:25.035Z,13.62
2022-09-23T09:51:25.320Z,13.62
2022-09-23T09:52:25.738Z,13.55
2022-09-23T09:53:25.824Z,13.57
2022-09-23T09:54:26.093Z,13.57
2022-09-23T09:55:26.374Z,13.64
2022-09-23T09:56:26.683Z,13.71
2022-09-23T09:57:28.685Z,13.78
2022-09-23T09:58:27.320Z,13.85
2022-09-23T09:59:27.590Z,13.88
2022-09-23T10:00:27.860Z,13.92
2022-09-23T10:01:28.173Z,13.91
2022-09-23T10:02:28.403Z,13.89
2022-09-23T10:03:28.671Z,13.89
2022-09-23T10:04:29.087Z,13.95
2022-09-23T10:05:29.156Z,13.96
2022-09-23T10:06:29.471Z,13.96
2022-09-23T10:07:29.733Z,13.99
2022-09-23T10:08:29.989Z,14.02
2022-09-23T10:09:30.253Z,14.04
2022-09-23T10:10:33.251Z,14.09
2022-09-23T10:11:30.783Z,14.15
2022-09-23T10:12:32.067Z,14.21
2022-09-23T10:13:31.436Z,14.24
2022-09-23T10:14:31.638Z,14.28
2022-09-23T10:15:31.926Z,14.33
2022-09-23T10:16:32.418Z,14.36
2022-09-23T10:17:32.534Z,14.39
2022-09-23T10:18:32.865Z,14.42
2022-09-23T10:19:33.269Z,14.42
2022-09-23T10:20:33.468Z,14.40
2022-09-23T10:21:33.724Z,14.39
2022-09-23T10:22:34.055Z,14.37
2022-09-23T10:23:34.396Z,14.33
2022-09-23T10:24:34.657Z,14.35
2022-09-23T10:25:35.156Z,14.37
2022-09-23T10:26:35.269Z,14.42
2022-09-23T10:27:35.555Z,14.40
2022-09-23T10:28:35.877Z,14.40
2022-09-23T10:29:36.168Z,14.42
2022-09-23T10:30:36.553Z,14.46
2022-09-23T10:31:36.664Z,14.50
2022-09-23T10:32:36.931Z,14.54
2022-09-23T10:33:37.291Z,14.61
2022-09-23T10:34:37.521Z,14.65
2022-09-23T10:35:37.702Z,14.69
2022-09-23T10:36:42.378Z,14.72
2022-09-23T10:37:39.312Z,14.77
2022-09-23T10:38:38.633Z,14.77
2022-09-23T10:39:38.927Z,14.78
2022-09-23T10:40:39.270Z,14.69
2022-09-23T10:41:39.456Z,14.70
2022-09-23T10:42:39.709Z,14.73
2022-09-23T10:43:40.009Z,14.80
2022-09-23T10:44:40.251Z,14.84
2022-09-23T10:45:42.718Z,14.89
2022-09-23T10:46:40.851Z,14.94
2022-09-23T10:47:41.067Z,14.88
2022-09-23T10:48:41.416Z,14.88
2022-09-23T10:49:41.655Z,14.92
2022-09-23T10:50:41.915Z,14.94
2022-09-23T10:51:42.191Z,14.94
2022-09-23T10:52:42.567Z,14.92
2022-09-23T10:53:42.797Z,14.95
2022-09-23T10:54:43.048Z,14.98
2022-09-23T10:55:43.319Z,15.01
2022-09-23T10:56:43.624Z,15.02
2022-09-23T10:57:43.890Z,15.06
2022-09-23T10:58:44.152Z,15.03
2022-09-23T10:59:44.442Z,15.03
2022-09-23T11:00:44.701Z,15.03
2022-09-23T11:01:45.079Z,15.06
2022-09-23T11:02:45.205Z,15.07
2022-09-23T11:03:45.478Z,15.10
2022-09-23T11:04:45.843Z,15.14
2022-09-23T11:05:46.075Z,15.10
2022-09-23T11:06:46.373Z,15.11
2022-09-23T11:07:47.545Z,15.06
2022-09-23T11:08:46.869Z,15.07
2022-09-23T11:09:47.119Z,15.11
2022-09-23T11:10:47.408Z,15.16
2022-09-23T11:11:47.694Z,15.19
2022-09-23T11:12:47.973Z,15.23
2022-09-23T11:13:52.144Z,15.31
2022-09-23T11:14:49.753Z,15.39
2022-09-23T11:15:48.844Z,15.46
2022-09-23T11:16:50.155Z,15.50
2022-09-23T11:17:49.504Z,15.57
2022-09-23T11:18:49.668Z,15.60
2022-09-23T11:19:50.022Z,15.64
2022-09-23T11:20:50.234Z,15.59
2022-09-23T11:21:50.490Z,15.56
2022-09-23T11:22:50.769Z,15.53
2022-09-23T11:23:51.067Z,15.54
2022-09-23T11:24:51.271Z,15.54
2022-09-23T11:25:51.526Z,15.50
2022-09-23T11:26:51.784Z,15.49
2022-09-23T11:27:52.060Z,15.47
2022-09-23T11:28:52.323Z,15.46
2022-09-23T11:29:52.575Z,15.47
2022-09-23T11:30:52.947Z,15.50
2022-09-23T11:31:56.191Z,15.50
2022-09-23T11:32:54.339Z,15.56
2022-09-23T11:33:53.627Z,15.60
2022-09-23T11:34:55.047Z,15.57
2022-09-23T11:35:54.168Z,15.53
2022-09-23T11:36:54.438Z,15.53
2022-09-23T11:37:54.716Z,15.46
2022-09-23T11:38:55.745Z,15.49
2022-09-23T11:39:55.252Z,15.51
2022-09-23T11:40:55.580Z,15.51
2022-09-23T11:41:55.733Z,15.54
2022-09-23T11:42:57.464Z,15.53
2022-09-23T11:43:56.283Z,15.53
2022-09-23T11:44:56.736Z,15.54
2022-09-23T11:45:56.960Z,15.56
2022-09-23T11:46:57.219Z,15.53
2022-09-23T11:47:57.508Z,15.53
2022-09-23T11:48:57.773Z,15.53
2022-09-23T11:49:58.044Z,15.51
2022-09-23T11:50:59.100Z,15.53
2022-09-23T11:51:58.582Z,15.59
2022-09-23T11:52:58.856Z,15.64
2022-09-23T11:54:01.713Z,15.62
2022-09-23T11:54:59.512Z,15.64
2022-09-23T11:55:59.694Z,15.65
2022-09-23T11:57:00.122Z,15.65
2022-09-23T11:58:00.479Z,15.68
2022-09-23T11:59:00.713Z,15.74
2022-09-23T12:00:01.093Z,15.76
2022-09-23T12:01:01.645Z,15.82
2022-09-23T12:02:13.353Z,15.80
2022-09-23T12:03:05.858Z,15.76
2022-09-23T12:04:12.722Z,15.80
2022-09-23T12:05:03.585Z,15.83
2022-09-23T12:06:02.784Z,15.83
2022-09-23T12:07:03.098Z,15.86
2022-09-23T12:08:03.808Z,15.86
2022-09-23T12:09:03.629Z,15.86
2022-09-23T12:10:03.907Z,15.90
2022-09-23T12:11:04.300Z,15.94
2022-09-23T12:12:04.401Z,15.97
2022-09-23T12:13:04.665Z,16.00
2022-09-23T12:14:04.930Z,15.94
2022-09-23T12:15:05.202Z,15.94
2022-09-23T12:16:05.462Z,15.90
2022-09-23T12:17:05.778Z,15.87
2022-09-23T12:18:06.071Z,15.86
2022-09-23T12:19:06.334Z,15.84
2022-09-23T12:20:06.584Z,15.82
2022-09-23T12:21:06.873Z,15.82
2022-09-23T12:22:07.090Z,15.82
2022-09-23T12:23:07.394Z,15.82
2022-09-23T12:24:07.687Z,15.84
2022-09-23T12:25:07.916Z,15.87
2022-09-23T12:26:08.174Z,15.86
2022-09-23T12:27:08.477Z,15.84
2022-09-23T12:28:08.747Z,15.84
2022-09-23T12:29:09.010Z,15.87
2022-09-23T12:30:09.293Z,15.87
2022-09-23T12:31:09.707Z,15.89
2022-09-23T12:32:09.814Z,15.90
2022-09-23T12:33:10.115Z,15.93
2022-09-23T12:34:10.428Z,15.94
2022-09-23T12:35:10.740Z,15.94
2022-09-23T12:36:11.024Z,15.93
2022-09-23T12:37:11.305Z,15.92
2022-09-23T12:38:11.585Z,15.92
2022-09-23T12:39:11.835Z,15.90
2022-09-23T12:40:12.279Z,15.92
2022-09-23T12:41:12.522Z,15.92
2022-09-23T12:42:12.648Z,15.84
2022-09-23T12:43:12.938Z,15.82
2022-09-23T12:44:13.177Z,15.76
2022-09-23T12:45:13.435Z,15.75
2022-09-23T12:46:13.802Z,15.68
2022-09-23T12:47:13.928Z,15.67
2022-09-23T12:48:14.183Z,15.65
2022-09-23T12:49:14.539Z,15.64
2022-09-23T12:50:18.417Z,15.64
2022-09-23T12:51:16.053Z,15.62
2022-09-23T12:52:15.265Z,15.64
2022-09-23T12:53:15.568Z,15.67
2022-09-23T12:54:15.841Z,15.69
2022-09-23T12:55:16.108Z,15.72
2022-09-23T12:56:16.371Z,15.78
2022-09-23T12:57:16.630Z,15.82
2022-09-23T12:58:16.923Z,15.84
2022-09-23T12:59:17.181Z,15.87
2022-09-23T13:00:17.495Z,15.87
2022-09-23T13:01:17.815Z,15.92
2022-09-23T13:02:18.267Z,15.93
2022-09-23T13:03:18.360Z,15.94
2022-09-23T13:04:18.624Z,15.96
2022-09-23T13:05:18.877Z,15.97
2022-09-23T13:06:19.138Z,15.97
2022-09-23T13:07:19.411Z,15.97
2022-09-23T13:08:19.680Z,16.00
2022-09-23T13:09:19.930Z,15.94
2022-09-23T13:10:20.299Z,15.96
2022-09-23T13:11:20.430Z,15.97